Bush, Louisiana
Current Conditions -  °F | °C
As of 10:17 PM on Monday 22 Dec 2014 (Local Time) from KASD Reporting Station
Haze Haze  
Wind Chill: 68°   Ceiling: 1200
Heat Index: 68°   Visibility: 5mi
Dew Point: 66°   Wind: 5mph
Humidity: 93%   Direction: 200°SSW
Pressure: 29.74"   Gusts: NA
Location:  30.61°N, 89.9°W
Report Text: KASD 230417Z AUTO 20004KT 5SM BR BKN012 BKN017 20/19 A2974 RMK AO2 T02000189
Loading
Personal Weather Stations






























Interactive Weather Map New forecast layout! Learn more

10-Day Weather Forecast

Advertisements
Track Severe Weather on mobile